Time;durP1;ratioP1;P1;durP2;ratioP2;P2;SDS_P1;SDS_P2;PMS_P1;PMS_P2;Temp;Humidity;BMP_temperature;BMP_pressure;BME280_temperature;BME280_humidity;BME280_pressure;Samples;Min_cycle;Max_cycle;Signal;HPM_P1;HPM_P2
2021/05/25 00:02:19;;;;;;;10.75;7.22;;;;;;;11.91;79.35;94876.07;1765946;80;21061;-50
2021/05/25 00:04:46;;;;;;;8.23;6.30;;;;;;;11.91;79.33;94866.42;1754423;80;21074;-50
2021/05/25 00:07:13;;;;;;;11.10;5.20;;;;;;;11.90;79.37;94864.26;1766783;80;21106;-50
2021/05/25 00:09:40;;;;;;;6.47;5.10;;;;;;;11.92;79.30;94854.17;1757844;80;21095;-50
2021/05/25 00:12:07;;;;;;;5.25;4.70;;;;;;;11.93;79.24;94857.84;1746490;80;21137;-49
2021/05/25 00:14:34;;;;;;;8.33;4.65;;;;;;;11.91;78.95;94849.25;1746588;80;21039;-50
2021/05/25 00:17:02;;;;;;;5.72;5.00;;;;;;;11.89;78.53;94853.08;1755140;80;20973;-50
2021/05/25 00:19:29;;;;;;;4.58;4.17;;;;;;;11.84;78.47;94848.16;1771385;80;21090;-50
2021/05/25 00:21:55;;;;;;;6.45;4.05;;;;;;;11.79;78.20;94840.48;1773610;80;21111;-50
2021/05/25 00:24:22;;;;;;;4.62;4.10;;;;;;;11.71;78.43;94839.20;1755391;80;21623;-50
2021/05/25 00:26:48;;;;;;;7.53;5.22;;;;;;;11.69;78.64;94843.03;1768335;80;21017;-50
2021/05/25 00:29:15;;;;;;;6.97;5.15;;;;;;;11.66;79.11;94849.45;1759241;80;21815;-49
2021/05/25 00:31:42;;;;;;;5.67;5.12;;;;;;;11.57;79.53;94838.98;1753600;80;21036;-53
2021/05/25 00:34:09;;;;;;;5.12;4.60;;;;;;;11.49;79.71;94833.56;1749708;80;21015;-51
2021/05/25 00:36:36;;;;;;;6.30;4.47;;;;;;;11.41;79.67;94825.38;1760468;80;21039;-51
2021/05/25 00:39:06;;;;;;;10.50;6.20;;;;;;;11.34;79.86;94829.16;1753915;80;21095;-50
2021/05/25 00:41:34;;;;;;;8.25;5.55;;;;;;;11.29;80.04;94822.09;1757000;80;21327;-50
2021/05/25 00:44:09;;;;;;;12.85;6.70;;;;;;;11.20;80.35;94822.80;1755564;80;21021;-49
2021/05/25 00:46:37;;;;;;;10.68;7.15;;;;;;;11.10;80.82;94812.95;1752566;80;20945;-49
2021/05/25 00:49:05;;;;;;;13.93;5.85;;;;;;;11.06;81.06;94823.33;1753852;80;20997;-49
2021/05/25 00:51:33;;;;;;;6.60;5.55;;;;;;;11.04;81.42;94809.25;1757977;80;21560;-50
2021/05/25 00:54:01;;;;;;;10.05;6.47;;;;;;;11.02;81.19;94811.66;1758778;80;21111;-50
2021/05/25 00:56:28;;;;;;;10.88;6.62;;;;;;;10.97;81.30;94800.47;1755399;80;21333;-49
2021/05/25 00:58:55;;;;;;;12.90;6.95;;;;;;;10.95;81.42;94803.66;1751673;80;21214;-49
2021/05/25 01:01:22;;;;;;;11.88;7.05;;;;;;;10.95;81.63;94802.28;1731066;81;21106;-50
2021/05/25 01:03:49;;;;;;;10.50;5.85;;;;;;;10.98;82.00;94798.62;1758940;80;21029;-49
2021/05/25 01:06:16;;;;;;;8.20;6.40;;;;;;;11.02;81.95;94789.63;1749707;80;20992;-50
2021/05/25 01:08:43;;;;;;;9.03;6.22;;;;;;;11.00;81.66;94787.94;1757921;80;21447;-50
2021/05/25 01:11:11;;;;;;;10.53;6.33;;;;;;;11.03;81.63;94782.94;1760102;80;21094;-50
2021/05/25 01:13:49;;;;;;;10.05;6.00;;;;;;;11.02;81.68;94780.00;1769124;80;21079;-50
2021/05/25 01:16:16;;;;;;;9.03;6.00;;;;;;;10.99;81.79;94777.39;1766339;80;21040;-50
2021/05/25 01:18:42;;;;;;;11.22;6.45;;;;;;;10.99;81.90;94785.66;1768518;80;21119;-50
2021/05/25 01:21:11;;;;;;;12.50;5.75;;;;;;;11.04;81.65;94782.31;1752615;80;21665;-49
2021/05/25 01:23:38;;;;;;;7.22;5.00;;;;;;;11.02;81.44;94773.73;1756352;80;21480;-50
2021/05/25 01:26:06;;;;;;;10.88;6.25;;;;;;;11.00;81.33;94781.68;1773341;80;20980;-49
2021/05/25 01:28:33;;;;;;;5.85;5.15;;;;;;;11.01;81.33;94774.95;1770708;80;20992;-50
2021/05/25 01:31:02;;;;;;;5.33;4.78;;;;;;;11.03;81.16;94778.80;1756249;81;21020;-50
2021/05/25 01:33:31;;;;;;;9.88;4.60;;;;;;;11.02;81.40;94780.63;1754152;80;21064;-49
2021/05/25 01:35:58;;;;;;;6.83;4.22;;;;;;;11.03;81.46;94783.53;1762704;80;20968;-50
2021/05/25 01:38:26;;;;;;;6.75;4.47;;;;;;;11.00;81.62;94779.67;1755865;80;21087;-50
2021/05/25 01:40:55;;;;;;;7.95;5.00;;;;;;;10.97;81.70;94774.33;1760668;80;21093;-49
2021/05/25 01:43:21;;;;;;;11.45;5.35;;;;;;;10.95;81.69;94776.76;1761331;80;21113;-50
2021/05/25 01:45:48;;;;;;;8.35;4.58;;;;;;;10.93;81.83;94775.82;1767759;80;20973;-50
2021/05/25 01:48:14;;;;;;;7.35;4.03;;;;;;;10.97;81.82;94780.58;1759768;80;21064;-50
2021/05/25 01:50:41;;;;;;;5.03;4.50;;;;;;;10.98;81.76;94770.35;1760763;80;21567;-49
2021/05/25 01:53:20;;;;;;;5.37;4.30;;;;;;;11.00;81.55;94770.67;1773096;80;21007;-49
2021/05/25 01:55:56;;;;;;;8.28;4.62;;;;;;;11.02;81.41;94771.73;1775088;80;21143;-51
2021/05/25 01:58:28;;;;;;;7.47;4.55;;;;;;;11.03;81.19;94769.77;1756191;80;21507;-50
2021/05/25 02:00:58;;;;;;;4.95;4.20;;;;;;;11.00;80.97;94759.03;1754070;80;20985;-51
2021/05/25 02:03:25;;;;;;;6.50;4.30;;;;;;;11.00;80.86;94759.66;1765565;80;20972;-49
2021/05/25 02:05:53;;;;;;;9.53;4.75;;;;;;;10.97;80.74;94755.05;1769119;80;21028;-50
2021/05/25 02:08:21;;;;;;;4.72;4.25;;;;;;;10.90;81.09;94756.67;1759667;80;21110;-50
2021/05/25 02:10:56;;;;;;;9.93;5.30;;;;;;;10.81;81.24;94743.61;1775738;80;21107;-49
2021/05/25 02:13:26;;;;;;;11.83;5.05;;;;;;;10.77;81.54;94744.36;1756109;80;20967;-51
2021/05/25 02:15:56;;;;;;;11.90;4.37;;;;;;;10.74;81.45;94750.77;1760658;80;21039;-51
2021/05/25 02:18:29;;;;;;;6.35;4.90;;;;;;;10.70;81.58;94747.22;1751330;80;21095;-50
2021/05/25 02:20:59;;;;;;;8.40;5.63;;;;;;;10.68;81.67;94757.91;1762454;80;21103;-51
2021/05/25 02:23:26;;;;;;;18.40;10.78;;;;;;;10.63;81.90;94748.83;1757581;80;21096;-50
2021/05/25 02:25:54;;;;;;;15.43;7.47;;;;;;;10.61;81.99;94743.79;1772819;80;21091;-57
2021/05/25 02:28:21;;;;;;;8.93;5.85;;;;;;;10.59;81.92;94753.69;1758930;80;21199;-50
2021/05/25 02:30:48;;;;;;;11.60;6.50;;;;;;;10.63;82.09;94763.95;1763840;80;21519;-55
2021/05/25 02:33:18;;;;;;;11.73;7.97;;;;;;;10.64;81.59;94769.03;1762152;80;21059;-55
2021/05/25 02:35:45;;;;;;;12.53;8.95;;;;;;;10.66;81.38;94785.06;1764008;80;20985;-54
2021/05/25 02:38:13;;;;;;;8.28;7.47;;;;;;;10.63;81.45;94781.25;1753975;80;21582;-55
2021/05/25 02:40:45;;;;;;;9.70;6.22;;;;;;;10.61;81.58;94777.39;1754752;80;21088;-57
2021/05/25 02:43:12;;;;;;;16.35;8.23;;;;;;;10.56;81.55;94781.48;1765309;80;21546;-55
2021/05/25 02:45:39;;;;;;;11.90;7.90;;;;;;;10.48;81.65;94777.45;1763502;80;21715;-55
2021/05/25 02:48:07;;;;;;;19.35;8.48;;;;;;;10.49;81.85;94771.35;1755087;80;20984;-56
2021/05/25 02:50:33;;;;;;;17.07;8.60;;;;;;;10.46;81.94;94772.22;1769091;81;21463;-53
2021/05/25 02:53:00;;;;;;;19.27;8.40;;;;;;;10.44;82.19;94774.05;1765496;80;21177;-52
2021/05/25 02:55:30;;;;;;;16.37;8.38;;;;;;;10.51;82.41;94760.67;1762808;80;21558;-52
2021/05/25 02:57:58;;;;;;;20.50;8.53;;;;;;;10.57;82.38;94753.38;1756757;80;21054;-55
2021/05/25 03:00:35;;;;;;;12.10;6.65;;;;;;;10.58;82.35;94748.81;1769187;80;20945;-54
2021/05/25 03:03:01;;;;;;;8.88;5.50;;;;;;;10.62;82.54;94745.33;1779586;80;21023;-52
2021/05/25 03:05:28;;;;;;;9.80;6.47;;;;;;;10.73;82.52;94749.23;1761991;80;21092;-51
2021/05/25 03:07:58;;;;;;;16.23;6.58;;;;;;;10.81;82.36;94735.36;1772843;80;20964;-51
2021/05/25 03:10:30;;;;;;;14.50;5.40;;;;;;;10.90;82.46;94740.94;1757578;81;21090;-51
2021/05/25 03:12:56;;;;;;;6.08;5.47;;;;;;;10.97;82.11;94733.78;1753071;80;21610;-51
2021/05/25 03:15:27;;;;;;;10.70;6.30;;;;;;;11.04;81.45;94738.27;1757767;80;21634;-53
2021/05/25 03:17:54;;;;;;;10.35;5.50;;;;;;;11.05;81.24;94734.30;1759470;80;21020;-52
2021/05/25 03:20:21;;;;;;;6.40;5.60;;;;;;;11.07;81.26;94722.22;1764207;80;21020;-54
2021/05/25 03:22:48;;;;;;;11.75;5.92;;;;;;;11.08;81.35;94714.12;1755901;80;21116;-52
2021/05/25 03:25:15;;;;;;;5.97;5.33;;;;;;;11.10;81.44;94726.23;1759790;80;21139;-52
2021/05/25 03:27:44;;;;;;;11.00;5.22;;;;;;;11.11;81.27;94734.64;1762783;80;21098;-53
2021/05/25 03:30:20;;;;;;;5.42;4.83;;;;;;;11.09;80.88;94739.05;1762568;80;21023;-52
2021/05/25 03:32:47;;;;;;;7.17;5.00;;;;;;;11.06;80.95;94745.46;1756602;80;20960;-53
2021/05/25 03:35:16;;;;;;;8.00;5.33;;;;;;;11.10;81.02;94760.64;1759147;80;21082;-53
2021/05/25 03:37:43;;;;;;;7.60;5.00;;;;;;;11.13;80.83;94779.01;1751463;80;20988;-52
2021/05/25 03:40:11;;;;;;;13.08;5.50;;;;;;;11.08;80.85;94814.02;1750727;80;21587;-53
2021/05/25 03:42:38;;;;;;;6.28;4.55;;;;;;;11.02;81.15;94826.80;1750459;80;20980;-53
2021/05/25 03:45:07;;;;;;;6.47;5.55;;;;;;;11.02;81.26;94879.10;1757220;80;21073;-53
2021/05/25 03:47:33;;;;;;;7.20;5.12;;;;;;;11.03;81.38;94852.35;1759922;80;21115;-52
2021/05/25 03:50:07;;;;;;;6.22;5.15;;;;;;;11.08;81.55;94863.56;1750428;80;20992;-54
2021/05/25 03:52:40;;;;;;;5.90;5.05;;;;;;;11.15;81.50;94857.80;1778818;80;21022;-53
2021/05/25 03:55:12;;;;;;;;;;;;;;;11.28;81.29;94847.50;1780738;80;20893;-52
2021/05/25 04:00:07;;;;;;;8.63;6.22;;;;;;;11.38;80.66;94825.66;1761361;80;21124;-54
2021/05/25 04:02:34;;;;;;;9.08;5.40;;;;;;;11.42;80.77;94826.33;1762239;80;20972;-53
2021/05/25 04:05:01;;;;;;;5.95;5.15;;;;;;;11.49;80.51;94832.94;1779521;80;21515;-53
2021/05/25 04:07:28;;;;;;;8.88;5.28;;;;;;;11.54;80.24;94828.84;1767097;80;20961;-53
2021/05/25 04:09:54;;;;;;;5.00;4.25;;;;;;;11.54;80.12;94815.81;1766354;80;21615;-53
2021/05/25 04:12:21;;;;;;;6.03;4.17;;;;;;;11.53;80.21;94797.75;1770078;80;21082;-52
2021/05/25 04:14:50;;;;;;;6.90;5.35;;;;;;;11.50;80.22;94786.88;1750155;80;21066;-53
2021/05/25 04:17:16;;;;;;;5.55;4.37;;;;;;;11.42;80.41;94773.20;1754099;80;20957;-53
2021/05/25 04:19:43;;;;;;;8.28;4.08;;;;;;;11.37;80.71;94748.38;1749549;80;21045;-53
2021/05/25 04:22:09;;;;;;;8.00;4.65;;;;;;;11.39;81.01;94734.17;1752534;80;21518;-53
2021/05/25 04:24:36;;;;;;;4.85;4.12;;;;;;;11.43;81.37;94720.43;1756807;80;21681;-53
2021/05/25 04:27:04;;;;;;;10.08;4.60;;;;;;;11.54;81.30;94706.23;1765401;80;20992;-53
2021/05/25 04:29:31;;;;;;;5.75;4.60;;;;;;;11.60;81.18;94685.93;1762877;80;21077;-54
2021/05/25 04:31:58;;;;;;;5.67;4.30;;;;;;;11.68;81.27;94675.39;1764792;80;21579;-53
2021/05/25 04:34:25;;;;;;;6.58;4.40;;;;;;;11.73;81.24;94651.36;1765624;80;20968;-54
2021/05/25 04:36:51;;;;;;;6.00;4.97;;;;;;;11.78;81.41;94647.39;1749152;80;21547;-53
2021/05/25 04:39:19;;;;;;;9.60;6.50;;;;;;;11.87;81.21;94662.55;1756417;80;21074;-53
2021/05/25 04:41:46;;;;;;;7.25;5.75;;;;;;;11.92;80.89;94661.94;1759406;80;21610;-53
2021/05/25 04:44:12;;;;;;;8.80;7.70;;;;;;;11.99;80.78;94678.80;1766863;80;21045;-53
2021/05/25 04:46:41;;;;;;;12.55;7.83;;;;;;;12.08;80.66;94691.98;1754012;80;21037;-53
2021/05/25 04:49:08;;;;;;;7.80;6.62;;;;;;;12.16;80.75;94701.52;1765804;80;21627;-54
2021/05/25 04:51:35;;;;;;;8.08;5.20;;;;;;;12.24;80.72;94688.95;1755401;80;20994;-53
2021/05/25 04:54:03;;;;;;;6.25;4.15;;;;;;;12.32;80.97;94688.03;1765565;80;21040;-52
2021/05/25 04:56:29;;;;;;;7.35;4.95;;;;;;;12.40;81.12;94692.01;1764146;80;21071;-53
2021/05/25 04:58:57;;;;;;;5.42;3.40;;;;;;;12.47;81.20;94686.95;1753834;81;21103;-53
2021/05/25 05:01:27;;;;;;;4.67;3.27;;;;;;;12.52;80.44;94685.58;1751591;81;21204;-53
2021/05/25 05:03:54;;;;;;;6.95;4.28;;;;;;;12.61;80.02;94686.34;1760865;80;21020;-54
2021/05/25 05:06:21;;;;;;;4.08;3.58;;;;;;;12.66;80.08;94674.07;1759046;80;21023;-54
2021/05/25 05:08:48;;;;;;;10.68;4.80;;;;;;;12.69;79.97;94676.53;1756217;80;21008;-53
2021/05/25 05:11:14;;;;;;;6.80;5.80;;;;;;;12.65;80.38;94670.38;1771489;80;21507;-54
2021/05/25 05:13:42;;;;;;;11.40;5.67;;;;;;;12.61;80.37;94678.06;1763470;80;21075;-55
2021/05/25 05:16:12;;;;;;;9.00;6.05;;;;;;;12.55;79.98;94675.77;1761279;81;21053;-52
2021/05/25 05:18:39;;;;;;;6.47;5.40;;;;;;;12.51;80.02;94669.65;1757195;80;21487;-54
2021/05/25 05:21:06;;;;;;;5.50;4.95;;;;;;;12.55;80.44;94661.98;1763393;80;21158;-55
2021/05/25 05:23:34;;;;;;;5.65;4.47;;;;;;;12.69;80.01;94662.10;1763821;80;20972;-56
2021/05/25 05:26:02;;;;;;;5.65;4.40;;;;;;;12.89;79.37;94665.77;1747539;80;21094;-56
2021/05/25 05:28:29;;;;;;;7.72;5.70;;;;;;;13.09;78.51;94662.66;1754542;80;21104;-53
2021/05/25 05:30:56;;;;;;;11.45;5.17;;;;;;;13.25;77.66;94662.93;1754564;80;21151;-53
2021/05/25 05:33:23;;;;;;;7.08;4.28;;;;;;;13.42;76.99;94679.30;1758383;80;21677;-54
2021/05/25 05:35:50;;;;;;;107.65;9.25;;;;;;;13.56;76.72;94669.70;1680416;82;21163;-54
2021/05/25 05:38:17;;;;;;;7.30;4.00;;;;;;;13.71;76.35;94669.17;1715602;81;21988;-54
2021/05/25 05:40:43;;;;;;;13.80;4.12;;;;;;;13.89;76.03;94667.69;1718488;81;21102;-53
2021/05/25 05:43:10;;;;;;;21.02;4.40;;;;;;;14.03;75.16;94666.22;1728249;81;21119;-53
2021/05/25 05:45:37;;;;;;;6.37;4.67;;;;;;;14.12;74.83;94671.07;1734170;80;21713;-54
2021/05/25 05:48:06;;;;;;;9.70;6.03;;;;;;;14.19;74.51;94665.20;1754930;80;21075;-54
2021/05/25 05:50:33;;;;;;;5.83;4.75;;;;;;;14.34;74.57;94668.03;1754870;80;21075;-53
2021/05/25 05:52:59;;;;;;;4.15;3.75;;;;;;;14.46;74.30;94665.01;1749729;80;21182;-58
2021/05/25 05:55:27;;;;;;;5.50;3.35;;;;;;;14.61;73.80;94660.27;1733464;80;21075;-56
2021/05/25 05:57:54;;;;;;;5.70;4.60;;;;;;;14.73;72.91;94650.30;1738469;80;21114;-55
2021/05/25 06:00:21;;;;;;;6.35;5.62;;;;;;;14.83;72.71;94657.91;1728702;80;21036;-53
2021/05/25 06:02:48;;;;;;;4.55;3.52;;;;;;;14.82;72.08;94661.92;1736796;80;21060;-54
2021/05/25 06:05:16;;;;;;;6.35;3.83;;;;;;;14.77;71.63;94663.34;1735966;80;21147;-56
2021/05/25 06:07:45;;;;;;;6.35;4.03;;;;;;;14.76;71.34;94654.89;1742334;80;22262;-55
2021/05/25 06:10:13;;;;;;;7.40;4.75;;;;;;;14.78;71.35;94655.17;1733890;80;21147;-57
2021/05/25 06:12:39;;;;;;;5.65;4.20;;;;;;;14.81;71.31;94652.83;1743979;80;21255;-56
2021/05/25 06:15:09;;;;;;;6.78;3.98;;;;;;;14.83;71.32;94639.27;1709420;81;21098;-56
2021/05/25 06:17:38;;;;;;;6.03;4.83;;;;;;;14.86;70.63;94642.50;1757756;80;21101;-59
2021/05/25 06:20:07;;;;;;;7.62;4.95;;;;;;;14.92;70.85;94643.34;1731967;80;21094;-58
2021/05/25 06:22:34;;;;;;;12.18;5.00;;;;;;;14.99;70.76;94640.19;1743671;80;21099;-52
2021/05/25 06:25:00;;;;;;;8.65;4.00;;;;;;;15.09;69.89;94636.09;1742427;80;21252;-51
2021/05/25 06:27:27;;;;;;;7.75;4.20;;;;;;;15.13;69.56;94627.56;1732751;80;21620;-53
2021/05/25 06:29:54;;;;;;;9.63;4.10;;;;;;;15.17;69.38;94630.29;1753037;79;20996;-52
2021/05/25 06:32:22;;;;;;;33.28;9.13;;;;;;;15.25;69.11;94634.22;1739717;80;21567;-52
2021/05/25 06:34:51;;;;;;;31.97;8.38;;;;;;;15.35;69.19;94630.74;1770816;79;21910;-58
2021/05/25 06:37:18;;;;;;;12.10;4.90;;;;;;;15.52;69.52;94624.20;1746123;80;21003;-53
2021/05/25 06:39:44;;;;;;;5.37;4.60;;;;;;;15.68;69.09;94611.20;1750537;80;21088;-52
2021/05/25 06:42:11;;;;;;;9.58;4.20;;;;;;;15.79;68.57;94607.81;1754713;80;21079;-59
2021/05/25 06:44:39;;;;;;;6.33;3.62;;;;;;;15.92;68.03;94606.87;1743591;80;21049;-55
2021/05/25 06:47:06;;;;;;;25.10;5.03;;;;;;;15.99;67.43;94603.06;1747091;80;21115;-53
2021/05/25 06:49:34;;;;;;;9.98;3.55;;;;;;;16.09;67.29;94605.08;1737146;80;22440;-55
2021/05/25 06:52:01;;;;;;;11.08;3.80;;;;;;;16.16;66.44;94598.48;1742325;79;21125;-58
2021/05/25 06:54:29;;;;;;;5.85;3.98;;;;;;;16.23;65.96;94591.72;1734857;80;21037;-54
2021/05/25 06:56:57;;;;;;;6.67;3.80;;;;;;;16.34;65.77;94587.09;1759169;80;21155;-51
2021/05/25 06:59:23;;;;;;;9.13;3.80;;;;;;;16.45;65.35;94587.22;1734943;80;21044;-48
2021/05/25 07:01:53;;;;;;;14.28;3.52;;;;;;;16.56;65.04;94579.02;1765970;80;21099;-51
2021/05/25 07:04:21;;;;;;;8.28;3.02;;;;;;;16.67;64.83;94576.34;1739953;80;21679;-56
2021/05/25 07:06:48;;;;;;;13.28;4.12;;;;;;;16.79;64.82;94575.20;1772103;80;21071;-52
2021/05/25 07:09:15;;;;;;;5.53;3.30;;;;;;;16.93;64.66;94568.77;1740833;80;20984;-56
2021/05/25 07:11:41;;;;;;;6.72;3.90;;;;;;;17.07;64.12;94558.16;1754960;80;21114;-52
2021/05/25 07:14:12;;;;;;;12.20;4.53;;;;;;;17.17;63.59;94551.15;1750943;80;21060;-61
2021/05/25 07:16:39;;;;;;;5.40;3.20;;;;;;;17.24;63.55;94538.95;1736417;80;21117;-53
2021/05/25 07:19:06;;;;;;;8.38;3.20;;;;;;;17.34;63.05;94526.42;1763292;80;21083;-54
2021/05/25 07:21:34;;;;;;;11.73;3.15;;;;;;;17.51;62.82;94541.81;1744579;80;21056;-54
2021/05/25 07:24:02;;;;;;;7.87;3.42;;;;;;;17.65;62.67;94536.07;1747044;80;20896;-51
2021/05/25 07:26:28;;;;;;;9.28;3.20;;;;;;;17.78;62.05;94534.23;1746374;80;21055;-57
2021/05/25 07:28:56;;;;;;;4.10;3.10;;;;;;;17.86;61.72;94519.34;1737981;80;21105;-54
2021/05/25 07:31:23;;;;;;;3.80;2.55;;;;;;;17.98;61.33;94522.97;1731328;81;21194;-54
2021/05/25 07:33:51;;;;;;;6.67;3.00;;;;;;;18.12;61.63;94526.94;1735582;80;21105;-55
2021/05/25 07:36:17;;;;;;;4.35;3.25;;;;;;;18.26;61.48;94528.12;1729888;80;21051;-59
2021/05/25 07:38:46;;;;;;;5.45;3.20;;;;;;;18.42;60.96;94525.30;1750856;80;21068;-55
2021/05/25 07:41:14;;;;;;;8.75;3.15;;;;;;;18.53;60.29;94521.91;1739589;79;21076;-60
2021/05/25 07:43:41;;;;;;;16.40;4.17;;;;;;;18.67;60.35;94525.07;1747873;80;21131;-54
2021/05/25 07:46:08;;;;;;;6.72;3.00;;;;;;;18.78;60.27;94522.31;1731641;80;21083;-55
2021/05/25 07:48:34;;;;;;;9.28;3.00;;;;;;;18.88;59.57;94510.28;1752758;80;21095;-49
2021/05/25 07:51:01;;;;;;;7.62;3.95;;;;;;;18.99;59.69;94513.09;1731608;80;21102;-51
2021/05/25 07:53:28;;;;;;;25.35;6.92;;;;;;;19.12;59.53;94514.09;1746642;80;21957;-54
2021/05/25 07:55:55;;;;;;;11.38;3.20;;;;;;;19.24;59.41;94501.70;1734038;80;21023;-55
2021/05/25 07:58:23;;;;;;;7.20;2.65;;;;;;;19.39;58.82;94500.77;1744254;80;21074;-50
2021/05/25 08:00:51;;;;;;;8.58;2.37;;;;;;;19.59;58.00;94494.14;1745070;80;21056;-47
2021/05/25 08:03:20;;;;;;;12.53;2.98;;;;;;;19.79;57.57;94487.62;1731515;80;21087;-55
2021/05/25 08:05:48;;;;;;;6.40;2.27;;;;;;;20.00;56.91;94481.05;1739767;80;21129;-61
2021/05/25 08:08:14;;;;;;;3.17;2.15;;;;;;;20.20;57.56;94483.64;1737363;80;21079;-61
2021/05/25 08:10:43;;;;;;;5.97;2.47;;;;;;;20.41;56.00;94470.08;1742339;80;21194;-57
2021/05/25 08:13:10;;;;;;;6.65;2.10;;;;;;;20.60;56.35;94470.97;1735832;80;21056;-61
2021/05/25 08:15:39;;;;;;;4.97;2.47;;;;;;;20.79;55.40;94467.66;1750515;80;21115;-57
2021/05/25 08:18:11;;;;;;;19.45;2.90;;;;;;;20.96;55.53;94468.33;1751890;80;21167;-59
2021/05/25 08:20:34;;;;;;;12.78;3.02;;;;;;;21.14;54.86;94471.86;1755615;78;21183;-55
2021/05/25 08:23:06;;;;;;;15.85;2.50;;;;;;;21.31;55.11;94464.07;1765230;79;21048;-57
2021/05/25 08:25:33;;;;;;;9.10;2.67;;;;;;;21.51;54.36;94459.41;1758641;80;21116;-56
2021/05/25 08:28:03;;;;;;;2.45;2.10;;;;;;;21.67;53.49;94459.91;1749008;79;21335;-53
2021/05/25 08:30:32;;;;;;;10.68;3.22;;;;;;;21.80;52.88;94456.58;1761795;80;21090;-53
2021/05/25 08:32:59;;;;;;;5.83;3.02;;;;;;;21.96;53.65;94459.05;1765104;80;21235;-53
2021/05/25 08:35:29;;;;;;;6.55;2.77;;;;;;;22.14;54.12;94450.02;1756552;80;21086;-54
2021/05/25 08:38:00;;;;;;;9.38;2.15;;;;;;;22.35;53.18;94448.87;1724250;80;21551;-53
2021/05/25 08:40:30;;;;;;;4.22;2.27;;;;;;;22.51;52.46;94456.33;1749888;80;21717;-53
2021/05/25 08:42:58;;;;;;;6.03;2.27;;;;;;;22.63;52.29;94457.02;1745493;80;21097;-54
2021/05/25 08:45:25;;;;;;;16.37;6.17;;;;;;;22.78;51.63;94461.52;1756817;80;21128;-54
2021/05/25 08:47:54;;;;;;;5.37;2.20;;;;;;;22.98;51.57;94452.53;1752369;80;21666;-56
2021/05/25 08:50:27;;;;;;;2.83;1.70;;;;;;;23.17;52.03;94453.27;1744634;80;21623;-53
2021/05/25 08:52:57;;;;;;;21.73;3.05;;;;;;;23.39;50.48;94449.33;1742215;80;21088;-58
2021/05/25 08:55:24;;;;;;;8.23;1.95;;;;;;;23.58;49.34;94444.37;1747752;80;21138;-54
2021/05/25 08:57:52;;;;;;;5.83;1.95;;;;;;;23.77;49.36;94454.88;1734145;80;21118;-54
2021/05/25 09:00:20;;;;;;;6.45;1.72;;;;;;;23.94;48.82;94440.62;1734121;80;20980;-55
2021/05/25 09:02:47;;;;;;;5.62;2.10;;;;;;;24.09;48.37;94440.83;1750985;80;22126;-54
2021/05/25 09:05:16;;;;;;;7.67;2.02;;;;;;;24.21;48.71;94433.69;1744414;80;21539;-52
2021/05/25 09:07:54;;;;;;;8.08;2.10;;;;;;;24.29;48.36;94430.31;1744410;80;21116;-52
2021/05/25 09:13:05;;;;;;;5.47;1.92;;;;;;;24.29;46.64;94428.27;1743408;80;21064;-52
2021/05/25 09:15:49;;;;;;;6.42;2.25;;;;;;;24.28;46.61;94423.17;1715447;81;21228;-52
2021/05/25 09:18:29;;;;;;;6.42;2.17;;;;;;;24.30;47.83;94422.75;1741353;80;21084;-51
2021/05/25 09:21:01;;;;;;;15.18;2.87;;;;;;;24.36;47.34;94425.45;1760884;79;22580;-51
2021/05/25 09:23:42;;;;;;;8.88;2.12;;;;;;;24.51;47.46;94427.00;1740991;80;21628;-55
2021/05/25 09:26:16;;;;;;;5.67;1.82;;;;;;;24.74;47.53;94418.21;1737704;80;21167;-57
2021/05/25 09:29:03;;;;;;;6.80;2.10;;;;;;;25.03;46.27;94424.02;1756214;80;21508;-54
2021/05/25 09:31:43;;;;;;;10.30;2.47;;;;;;;25.31;45.44;94420.64;1684371;83;21063;-55
2021/05/25 09:34:22;;;;;;;5.37;1.92;;;;;;;25.53;44.88;94424.95;1686928;83;21194;-53
2021/05/25 09:37:00;;;;;;;8.73;2.30;;;;;;;25.59;44.56;94420.69;1740081;80;21190;-56
2021/05/25 09:39:29;;;;;;;10.32;2.30;;;;;;;25.70;45.24;94413.32;1740947;80;21063;-55
2021/05/25 09:42:03;;;;;;;7.95;2.10;;;;;;;25.80;44.91;94407.29;1751836;80;21056;-57
2021/05/25 09:44:33;;;;;;;5.08;1.90;;;;;;;25.91;45.91;94407.02;1741893;80;21095;-52
2021/05/25 09:47:01;;;;;;;7.33;2.17;;;;;;;26.06;43.93;94400.80;1682089;83;21201;-52
2021/05/25 09:49:29;;;;;;;6.70;1.90;;;;;;;26.28;44.67;94408.61;1746408;79;21109;-54
2021/05/25 09:52:12;;;;;;;6.97;1.95;;;;;;;26.44;43.93;94396.07;1743745;80;20996;-49
2021/05/25 09:54:40;;;;;;;4.33;1.65;;;;;;;26.48;43.31;94397.16;1737002;80;21068;-54
2021/05/25 09:57:09;;;;;;;7.65;2.17;;;;;;;26.51;42.56;94398.86;1750377;80;22288;-54
2021/05/25 09:59:41;;;;;;;6.78;2.05;;;;;;;26.65;41.39;94396.73;1743521;80;22247;-54
2021/05/25 10:02:22;;;;;;;6.37;1.80;;;;;;;26.82;41.12;94401.20;1773357;79;21114;-54
2021/05/25 10:05:07;;;;;;;8.83;2.50;;;;;;;27.01;41.13;94397.37;1729494;80;21055;-53
2021/05/25 10:07:36;;;;;;;11.53;2.62;;;;;;;27.25;40.39;94394.02;1763664;80;21239;-54
2021/05/25 10:10:05;;;;;;;7.22;2.00;;;;;;;27.49;39.98;94383.58;1755402;80;21560;-54
2021/05/25 10:12:31;;;;;;;7.00;1.87;;;;;;;27.67;39.95;94388.08;1726733;81;21155;-53
2021/05/25 10:15:00;;;;;;;11.73;2.25;;;;;;;27.80;38.63;94392.80;1734998;81;21088;-53
2021/05/25 10:20:10;;;;;;;10.43;2.02;;;;;;;27.83;39.25;94381.12;1732299;80;21111;-54
2021/05/25 10:22:38;;;;;;;15.70;1.98;;;;;;;27.82;39.73;94380.26;1763398;79;21063;-58
2021/05/25 10:25:07;;;;;;;20.32;3.08;;;;;;;27.78;39.10;94389.80;1757752;80;21167;-57
2021/05/25 10:27:33;;;;;;;7.87;2.87;;;;;;;27.69;38.69;94379.02;1739719;80;21197;-55
2021/05/25 10:30:00;;;;;;;10.10;2.55;;;;;;;27.61;39.07;94377.61;1722192;81;21020;-55
2021/05/25 10:32:27;;;;;;;14.30;2.80;;;;;;;27.58;38.55;94375.92;1733826;80;22243;-54
2021/05/25 10:34:54;;;;;;;15.25;3.72;;;;;;;27.72;36.57;94374.43;1733701;81;21071;-56
2021/05/25 10:37:22;;;;;;;43.50;29.87;;;;;;;27.91;37.06;94360.63;1748058;80;21094;-55
2021/05/25 10:39:56;;;;;;;14.30;4.12;;;;;;;28.20;35.88;94373.92;1759887;79;21614;-55
2021/05/25 10:42:29;;;;;;;20.57;3.42;;;;;;;28.52;35.40;94384.56;1755231;80;21581;-58
2021/05/25 10:45:14;;;;;;;17.60;3.33;;;;;;;28.54;33.87;94386.92;1744039;80;21063;-54
2021/05/25 10:48:05;;;;;;;45.63;5.20;;;;;;;28.71;33.70;94389.09;1741274;80;21039;-57
2021/05/25 10:50:37;;;;;;;11.63;3.90;;;;;;;28.60;34.25;94385.30;1713541;80;21036;-57
2021/05/25 10:53:05;;;;;;;26.65;19.92;;;;;;;28.73;34.04;94379.39;1743228;80;21107;-53
2021/05/25 10:55:42;;;;;;;29.90;19.32;;;;;;;28.65;34.39;94380.08;1736365;80;21059;-55
2021/05/25 10:58:35;;;;;;;21.80;15.03;;;;;;;28.84;34.48;94380.34;1726550;81;21125;-54
2021/05/25 11:01:07;;;;;;;27.55;8.10;;;;;;;29.11;34.04;94379.25;1737365;80;21170;-55
2021/05/25 11:03:34;;;;;;;51.95;30.25;;;;;;;29.25;33.80;94381.13;1746040;80;21687;-55
2021/05/25 11:06:02;;;;;;;23.65;10.28;;;;;;;29.32;33.73;94383.17;1740819;80;21069;-53
2021/05/25 11:08:36;;;;;;;16.57;3.92;;;;;;;29.21;34.17;94378.72;1755499;80;21083;-52
2021/05/25 11:11:16;;;;;;;13.22;3.98;;;;;;;29.30;33.22;94369.56;1743666;80;21090;-54
2021/05/25 11:13:51;;;;;;;15.58;10.30;;;;;;;29.44;33.17;94375.03;1743813;80;21095;-57
2021/05/25 11:16:39;;;;;;;23.32;14.93;;;;;;;29.46;33.45;94374.47;1761878;80;21174;-58
2021/05/25 11:25:08;;;;;;;21.17;8.73;;;;;;;29.61;32.19;94385.03;1746254;80;21221;-55
2021/05/25 11:27:33;;;;;;;26.52;12.07;;;;;;;29.79;32.48;94375.22;1714451;80;21035;-56
2021/05/25 11:30:13;;;;;;;27.27;6.65;;;;;;;30.24;32.57;94379.77;1733342;80;21151;-54
2021/05/25 11:32:46;;;;;;;21.02;7.62;;;;;;;30.82;31.38;94375.27;1722919;80;21084;-57
2021/05/25 11:35:17;;;;;;;14.13;6.58;;;;;;;31.24;29.90;94380.84;1705872;82;21025;-54
2021/05/25 11:37:46;;;;;;;16.20;3.10;;;;;;;31.49;29.31;94379.98;1714828;81;22421;-55
2021/05/25 11:40:19;;;;;;;18.20;2.90;;;;;;;31.69;28.95;94373.04;1686732;82;21137;-54
2021/05/25 11:42:47;;;;;;;17.35;3.47;;;;;;;31.93;28.91;94375.64;1704109;81;21112;-54
2021/05/25 11:45:16;;;;;;;10.45;2.83;;;;;;;31.79;28.75;94375.22;1745349;80;21704;-56
2021/05/25 11:47:44;;;;;;;18.27;2.75;;;;;;;31.39;28.74;94372.08;1708468;80;21071;-59
2021/05/25 11:50:11;;;;;;;12.70;3.02;;;;;;;30.85;29.48;94359.22;1725241;80;21051;-56
2021/05/25 11:52:43;;;;;;;11.78;2.45;;;;;;;30.37;30.89;94372.34;1739910;80;21198;-53